sensor_id;sensor_type;location;lat;lon;timestamp;pressure;altitude;pressure_sealevel;temperature;humidity
64139;BME280;50435;43.700;-79.318;2023-06-14T00:00:56;99070.12;;;10.41;78.63
64139;BME280;50435;43.700;-79.318;2023-06-14T00:03:24;99061.50;;;9.89;78.79
64139;BME280;50435;43.700;-79.318;2023-06-14T00:05:51;99058.11;;;9.84;78.84
64139;BME280;50435;43.700;-79.318;2023-06-14T00:08:19;99056.96;;;9.54;79.02
64139;BME280;50435;43.700;-79.318;2023-06-14T00:10:47;99057.22;;;9.76;79.01
64139;BME280;50435;43.700;-79.318;2023-06-14T00:13:14;99052.24;;;9.95;79.04
64139;BME280;50435;43.700;-79.318;2023-06-14T00:15:42;99048.99;;;9.68;79.08
64139;BME280;50435;43.700;-79.318;2023-06-14T00:18:09;99043.64;;;9.65;79.18
64139;BME280;50435;43.700;-79.318;2023-06-14T00:20:37;99038.64;;;9.59;79.35
64139;BME280;50435;43.700;-79.318;2023-06-14T00:23:05;99039.32;;;9.56;79.48
64139;BME280;50435;43.700;-79.318;2023-06-14T00:25:32;99035.02;;;9.50;79.48
64139;BME280;50435;43.700;-79.318;2023-06-14T00:28:00;99033.29;;;9.47;79.58
64139;BME280;50435;43.700;-79.318;2023-06-14T00:30:28;99036.61;;;9.66;79.59
64139;BME280;50435;43.700;-79.318;2023-06-14T00:32:56;99035.43;;;9.40;79.74
64139;BME280;50435;43.700;-79.318;2023-06-14T00:35:24;99029.65;;;9.34;79.87
64139;BME280;50435;43.700;-79.318;2023-06-14T00:37:51;99027.02;;;9.33;79.80
64139;BME280;50435;43.700;-79.318;2023-06-14T00:40:19;99028.19;;;9.25;80.04
64139;BME280;50435;43.700;-79.318;2023-06-14T00:42:46;99030.96;;;9.23;80.11
64139;BME280;50435;43.700;-79.318;2023-06-14T00:45:14;99029.21;;;9.19;80.22
64139;BME280;50435;43.700;-79.318;2023-06-14T00:47:43;99028.47;;;9.14;80.25
64139;BME280;50435;43.700;-79.318;2023-06-14T00:50:11;99023.75;;;9.10;80.29
64139;BME280;50435;43.700;-79.318;2023-06-14T00:52:39;99020.80;;;9.28;80.38
64139;BME280;50435;43.700;-79.318;2023-06-14T00:55:08;99017.40;;;9.01;80.53
64139;BME280;50435;43.700;-79.318;2023-06-14T00:57:37;99018.56;;;9.18;80.62
64139;BME280;50435;43.700;-79.318;2023-06-14T01:00:05;99014.71;;;9.39;80.75
64139;BME280;50435;43.700;-79.318;2023-06-14T01:02:34;99010.78;;;9.34;80.87
64139;BME280;50435;43.700;-79.318;2023-06-14T01:05:01;99004.42;;;8.83;80.87
64139;BME280;50435;43.700;-79.318;2023-06-14T01:07:35;99001.37;;;8.82;80.84
64139;BME280;50435;43.700;-79.318;2023-06-14T01:10:20;99002.91;;;8.99;80.94
64139;BME280;50435;43.700;-79.318;2023-06-14T01:12:56;99005.19;;;9.22;81.00
64139;BME280;50435;43.700;-79.318;2023-06-14T01:15:26;99002.20;;;9.18;81.07
64139;BME280;50435;43.700;-79.318;2023-06-14T01:17:55;99002.12;;;9.14;81.13
64139;BME280;50435;43.700;-79.318;2023-06-14T01:20:22;99005.41;;;9.08;81.30
64139;BME280;50435;43.700;-79.318;2023-06-14T01:22:55;99005.69;;;9.07;81.31
64139;BME280;50435;43.700;-79.318;2023-06-14T01:25:23;99006.71;;;9.02;81.39
64139;BME280;50435;43.700;-79.318;2023-06-14T01:27:52;99003.23;;;8.70;81.49
64139;BME280;50435;43.700;-79.318;2023-06-14T01:30:20;99003.10;;;8.67;81.48
64139;BME280;50435;43.700;-79.318;2023-06-14T01:32:50;99005.97;;;8.89;81.63
64139;BME280;50435;43.700;-79.318;2023-06-14T01:35:17;99014.08;;;8.60;81.60
64139;BME280;50435;43.700;-79.318;2023-06-14T01:37:47;99016.56;;;8.56;81.67
64139;BME280;50435;43.700;-79.318;2023-06-14T01:40:16;99022.47;;;8.82;81.64
64139;BME280;50435;43.700;-79.318;2023-06-14T01:42:46;99028.47;;;8.53;81.65
64139;BME280;50435;43.700;-79.318;2023-06-14T01:45:16;99035.84;;;8.76;81.73
64139;BME280;50435;43.700;-79.318;2023-06-14T01:47:45;99032.15;;;8.43;81.87
64139;BME280;50435;43.700;-79.318;2023-06-14T01:50:13;99030.48;;;8.42;81.86
64139;BME280;50435;43.700;-79.318;2023-06-14T01:52:41;99032.48;;;8.40;81.88
64139;BME280;50435;43.700;-79.318;2023-06-14T01:55:09;99028.19;;;8.13;81.93
64139;BME280;50435;43.700;-79.318;2023-06-14T01:57:36;99024.58;;;8.60;81.94
64139;BME280;50435;43.700;-79.318;2023-06-14T02:00:04;99024.71;;;8.60;81.96
64139;BME280;50435;43.700;-79.318;2023-06-14T02:02:32;99020.82;;;8.55;82.01
64139;BME280;50435;43.700;-79.318;2023-06-14T02:05:00;99018.53;;;8.55;82.03
64139;BME280;50435;43.700;-79.318;2023-06-14T02:07:28;99013.16;;;8.52;82.10
64139;BME280;50435;43.700;-79.318;2023-06-14T02:09:56;99010.80;;;8.48;82.14
64139;BME280;50435;43.700;-79.318;2023-06-14T02:12:24;99012.75;;;8.68;82.27
64139;BME280;50435;43.700;-79.318;2023-06-14T02:14:51;99010.85;;;8.40;82.40
64139;BME280;50435;43.700;-79.318;2023-06-14T02:17:19;99010.86;;;8.60;82.35
64139;BME280;50435;43.700;-79.318;2023-06-14T02:19:46;99009.21;;;8.77;82.51
64139;BME280;50435;43.700;-79.318;2023-06-14T02:22:14;99008.85;;;8.76;82.49
64139;BME280;50435;43.700;-79.318;2023-06-14T02:24:41;99014.69;;;8.51;82.55
64139;BME280;50435;43.700;-79.318;2023-06-14T02:27:09;99009.24;;;8.72;82.52
64139;BME280;50435;43.700;-79.318;2023-06-14T02:29:36;99009.46;;;8.01;82.57
64139;BME280;50435;43.700;-79.318;2023-06-14T02:32:04;99006.16;;;8.50;82.50
64139;BME280;50435;43.700;-79.318;2023-06-14T02:34:32;99005.65;;;8.47;82.59
64139;BME280;50435;43.700;-79.318;2023-06-14T02:37:00;99002.70;;;8.26;82.52
64139;BME280;50435;43.700;-79.318;2023-06-14T02:39:28;99000.54;;;8.67;82.59
64139;BME280;50435;43.700;-79.318;2023-06-14T02:41:55;98996.75;;;8.43;82.66
64139;BME280;50435;43.700;-79.318;2023-06-14T02:44:25;98997.41;;;8.43;82.70
64139;BME280;50435;43.700;-79.318;2023-06-14T02:46:53;98990.21;;;8.63;82.75
64139;BME280;50435;43.700;-79.318;2023-06-14T02:49:20;98986.57;;;8.38;82.85
64139;BME280;50435;43.700;-79.318;2023-06-14T02:51:48;98983.50;;;8.40;82.77
64139;BME280;50435;43.700;-79.318;2023-06-14T02:54:16;98977.08;;;8.57;82.95
64139;BME280;50435;43.700;-79.318;2023-06-14T02:56:44;98970.78;;;8.34;82.95
64139;BME280;50435;43.700;-79.318;2023-06-14T02:59:11;98960.49;;;8.29;82.97
64139;BME280;50435;43.700;-79.318;2023-06-14T03:01:39;98958.22;;;8.50;83.03
64139;BME280;50435;43.700;-79.318;2023-06-14T03:04:07;98958.86;;;8.47;83.09
64139;BME280;50435;43.700;-79.318;2023-06-14T03:06:36;98954.65;;;8.01;83.09
64139;BME280;50435;43.700;-79.318;2023-06-14T03:09:04;98950.56;;;8.01;83.04
64139;BME280;50435;43.700;-79.318;2023-06-14T03:11:31;98952.24;;;8.00;83.06
64139;BME280;50435;43.700;-79.318;2023-06-14T03:14:00;98954.58;;;8.19;83.12
64139;BME280;50435;43.700;-79.318;2023-06-14T03:16:28;98954.74;;;8.16;83.13
64139;BME280;50435;43.700;-79.318;2023-06-14T03:18:56;98957.67;;;7.91;83.21
64139;BME280;50435;43.700;-79.318;2023-06-14T03:21:23;98950.12;;;8.11;83.26
64139;BME280;50435;43.700;-79.318;2023-06-14T03:23:51;98957.70;;;7.87;83.31
64139;BME280;50435;43.700;-79.318;2023-06-14T03:26:19;98957.88;;;8.07;83.35
64139;BME280;50435;43.700;-79.318;2023-06-14T03:28:46;98956.65;;;8.26;83.39
64139;BME280;50435;43.700;-79.318;2023-06-14T03:31:14;98956.72;;;7.78;83.50
64139;BME280;50435;43.700;-79.318;2023-06-14T03:33:41;98953.78;;;8.18;83.63
64139;BME280;50435;43.700;-79.318;2023-06-14T03:36:09;98950.70;;;8.15;83.74
64139;BME280;50435;43.700;-79.318;2023-06-14T03:38:37;98948.33;;;8.12;83.78
64139;BME280;50435;43.700;-79.318;2023-06-14T03:41:04;98949.43;;;8.07;83.89
64139;BME280;50435;43.700;-79.318;2023-06-14T03:43:32;98946.51;;;7.85;83.83
64139;BME280;50435;43.700;-79.318;2023-06-14T03:46:00;98943.96;;;8.06;83.74
64139;BME280;50435;43.700;-79.318;2023-06-14T03:48:28;98942.68;;;8.04;83.83
64139;BME280;50435;43.700;-79.318;2023-06-14T03:50:55;98943.98;;;8.00;83.95
64139;BME280;50435;43.700;-79.318;2023-06-14T03:53:23;98941.99;;;7.79;83.84
64139;BME280;50435;43.700;-79.318;2023-06-14T03:55:50;98942.65;;;7.78;83.87
64139;BME280;50435;43.700;-79.318;2023-06-14T03:58:18;98939.20;;;7.53;83.84
64139;BME280;50435;43.700;-79.318;2023-06-14T04:00:46;98935.26;;;7.71;83.93
64139;BME280;50435;43.700;-79.318;2023-06-14T04:03:14;98923.02;;;7.70;83.88
64139;BME280;50435;43.700;-79.318;2023-06-14T04:05:42;98920.43;;;7.87;84.09
64139;BME280;50435;43.700;-79.318;2023-06-14T04:08:10;98928.63;;;7.43;83.99
64139;BME280;50435;43.700;-79.318;2023-06-14T04:10:38;98929.63;;;7.86;84.03
64139;BME280;50435;43.700;-79.318;2023-06-14T04:13:06;98933.16;;;7.85;84.10
64139;BME280;50435;43.700;-79.318;2023-06-14T04:15:33;98932.81;;;7.81;84.22
64139;BME280;50435;43.700;-79.318;2023-06-14T04:18:01;98930.21;;;7.80;84.24
64139;BME280;50435;43.700;-79.318;2023-06-14T04:20:29;98922.83;;;7.92;84.74
64139;BME280;50435;43.700;-79.318;2023-06-14T04:22:57;98918.98;;;7.87;84.92
64139;BME280;50435;43.700;-79.318;2023-06-14T04:25:24;98919.59;;;7.72;84.48
64139;BME280;50435;43.700;-79.318;2023-06-14T04:27:52;98916.94;;;7.71;84.44
64139;BME280;50435;43.700;-79.318;2023-06-14T04:30:20;98914.42;;;7.75;84.31
64139;BME280;50435;43.700;-79.318;2023-06-14T04:32:47;98910.05;;;7.54;84.22
64139;BME280;50435;43.700;-79.318;2023-06-14T04:35:15;98916.45;;;7.75;84.26
64139;BME280;50435;43.700;-79.318;2023-06-14T04:37:42;98915.67;;;7.49;84.38
64139;BME280;50435;43.700;-79.318;2023-06-14T04:40:11;98913.79;;;7.48;84.46
64139;BME280;50435;43.700;-79.318;2023-06-14T04:42:39;98914.28;;;7.68;84.49
64139;BME280;50435;43.700;-79.318;2023-06-14T04:45:07;98911.04;;;7.66;84.49
64139;BME280;50435;43.700;-79.318;2023-06-14T04:47:35;98913.94;;;7.63;84.62
64139;BME280;50435;43.700;-79.318;2023-06-14T04:50:03;98916.05;;;7.60;84.64
64139;BME280;50435;43.700;-79.318;2023-06-14T04:52:30;98909.44;;;7.56;84.75
64139;BME280;50435;43.700;-79.318;2023-06-14T04:54:58;98906.26;;;7.57;84.71
64139;BME280;50435;43.700;-79.318;2023-06-14T04:57:26;98906.05;;;7.58;84.62
64139;BME280;50435;43.700;-79.318;2023-06-14T04:59:53;98901.89;;;7.56;84.72
64139;BME280;50435;43.700;-79.318;2023-06-14T05:02:22;98895.13;;;7.55;84.68
64139;BME280;50435;43.700;-79.318;2023-06-14T05:04:49;98895.39;;;7.51;84.82
64139;BME280;50435;43.700;-79.318;2023-06-14T05:07:16;98892.30;;;7.49;84.88
64139;BME280;50435;43.700;-79.318;2023-06-14T05:09:45;98886.16;;;7.48;84.91
64139;BME280;50435;43.700;-79.318;2023-06-14T05:12:12;98885.18;;;7.76;84.87
64139;BME280;50435;43.700;-79.318;2023-06-14T05:14:40;98882.66;;;7.30;84.66
64139;BME280;50435;43.700;-79.318;2023-06-14T05:17:08;98879.05;;;7.49;84.70
64139;BME280;50435;43.700;-79.318;2023-06-14T05:19:36;98882.05;;;7.46;84.91
64139;BME280;50435;43.700;-79.318;2023-06-14T05:22:04;98886.33;;;7.43;84.97
64139;BME280;50435;43.700;-79.318;2023-06-14T05:24:31;98886.03;;;7.44;84.91
64139;BME280;50435;43.700;-79.318;2023-06-14T05:27:00;98880.58;;;7.42;84.98
64139;BME280;50435;43.700;-79.318;2023-06-14T05:29:27;98880.36;;;7.88;85.02
64139;BME280;50435;43.700;-79.318;2023-06-14T05:31:55;98880.38;;;7.39;85.06
64139;BME280;50435;43.700;-79.318;2023-06-14T05:34:22;98875.59;;;7.39;84.93
64139;BME280;50435;43.700;-79.318;2023-06-14T05:36:50;98871.91;;;7.39;84.97
64139;BME280;50435;43.700;-79.318;2023-06-14T05:39:18;98866.11;;;7.37;85.03
64139;BME280;50435;43.700;-79.318;2023-06-14T05:41:46;98866.40;;;7.35;85.12
64139;BME280;50435;43.700;-79.318;2023-06-14T05:44:13;98866.27;;;7.35;85.13
64139;BME280;50435;43.700;-79.318;2023-06-14T05:46:41;98863.18;;;7.32;85.14
64139;BME280;50435;43.700;-79.318;2023-06-14T05:49:09;98864.46;;;7.31;85.10
64139;BME280;50435;43.700;-79.318;2023-06-14T05:51:36;98861.23;;;7.29;85.21
64139;BME280;50435;43.700;-79.318;2023-06-14T05:54:04;98859.38;;;7.27;85.19
64139;BME280;50435;43.700;-79.318;2023-06-14T05:56:31;98856.29;;;7.04;85.29
64139;BME280;50435;43.700;-79.318;2023-06-14T05:58:59;98855.78;;;7.24;85.31
64139;BME280;50435;43.700;-79.318;2023-06-14T06:01:27;98855.29;;;7.24;85.20
64139;BME280;50435;43.700;-79.318;2023-06-14T06:03:54;98851.69;;;7.23;85.25
64139;BME280;50435;43.700;-79.318;2023-06-14T06:06:22;98849.36;;;7.45;85.32
64139;BME280;50435;43.700;-79.318;2023-06-14T06:08:50;98850.93;;;7.00;85.27
64139;BME280;50435;43.700;-79.318;2023-06-14T06:11:18;98848.50;;;7.19;85.28
64139;BME280;50435;43.700;-79.318;2023-06-14T06:13:45;98847.89;;;7.16;85.41
64139;BME280;50435;43.700;-79.318;2023-06-14T06:16:14;98845.26;;;7.16;85.42
64139;BME280;50435;43.700;-79.318;2023-06-14T06:18:41;98837.37;;;7.43;85.47
64139;BME280;50435;43.700;-79.318;2023-06-14T06:21:09;98831.86;;;7.18;85.45
64139;BME280;50435;43.700;-79.318;2023-06-14T06:23:37;98831.25;;;7.17;85.43
64139;BME280;50435;43.700;-79.318;2023-06-14T06:26:04;98832.43;;;7.41;85.55
64139;BME280;50435;43.700;-79.318;2023-06-14T06:28:32;98829.69;;;7.42;85.52
64139;BME280;50435;43.700;-79.318;2023-06-14T06:31:00;98823.69;;;7.39;85.66
64139;BME280;50435;43.700;-79.318;2023-06-14T06:33:28;98818.80;;;7.39;85.63
64139;BME280;50435;43.700;-79.318;2023-06-14T06:35:56;98810.73;;;7.39;85.69
64139;BME280;50435;43.700;-79.318;2023-06-14T06:38:23;98805.07;;;7.13;85.62
64139;BME280;50435;43.700;-79.318;2023-06-14T06:40:51;98806.10;;;7.14;85.56
64139;BME280;50435;43.700;-79.318;2023-06-14T06:43:19;98808.30;;;7.41;85.59
64139;BME280;50435;43.700;-79.318;2023-06-14T06:45:47;98805.62;;;7.12;85.72
64139;BME280;50435;43.700;-79.318;2023-06-14T06:48:15;98800.35;;;7.08;85.72
64139;BME280;50435;43.700;-79.318;2023-06-14T06:50:42;98792.50;;;7.08;85.72
64139;BME280;50435;43.700;-79.318;2023-06-14T06:53:10;98791.22;;;7.07;85.76
64139;BME280;50435;43.700;-79.318;2023-06-14T06:55:38;98788.05;;;7.53;85.82
64139;BME280;50435;43.700;-79.318;2023-06-14T06:58:05;98782.66;;;7.26;85.96
64139;BME280;50435;43.700;-79.318;2023-06-14T07:00:33;98778.96;;;7.00;85.96
64139;BME280;50435;43.700;-79.318;2023-06-14T07:03:01;98771.88;;;7.43;86.05
64139;BME280;50435;43.700;-79.318;2023-06-14T07:05:28;98775.35;;;7.43;86.05
64139;BME280;50435;43.700;-79.318;2023-06-14T07:07:56;98776.01;;;6.92;86.08
64139;BME280;50435;43.700;-79.318;2023-06-14T07:10:24;98769.60;;;7.18;86.05
64139;BME280;50435;43.700;-79.318;2023-06-14T07:12:52;98766.23;;;6.90;86.08
64139;BME280;50435;43.700;-79.318;2023-06-14T07:15:19;98762.92;;;6.88;86.07
64139;BME280;50435;43.700;-79.318;2023-06-14T07:17:47;98755.34;;;6.89;86.06
64139;BME280;50435;43.700;-79.318;2023-06-14T07:20:14;98749.52;;;7.12;86.06
64139;BME280;50435;43.700;-79.318;2023-06-14T07:22:42;98743.34;;;6.85;86.07
64139;BME280;50435;43.700;-79.318;2023-06-14T07:25:11;98741.31;;;6.81;86.19
64139;BME280;50435;43.700;-79.318;2023-06-14T07:27:39;98730.73;;;7.05;86.30
64139;BME280;50435;43.700;-79.318;2023-06-14T07:30:07;98723.92;;;6.78;86.19
64139;BME280;50435;43.700;-79.318;2023-06-14T07:32:35;98718.46;;;6.77;86.16
64139;BME280;50435;43.700;-79.318;2023-06-14T07:35:03;98720.33;;;6.73;86.29
64139;BME280;50435;43.700;-79.318;2023-06-14T07:37:30;98720.95;;;6.75;86.16
64139;BME280;50435;43.700;-79.318;2023-06-14T07:39:58;98722.65;;;6.72;86.16
64139;BME280;50435;43.700;-79.318;2023-06-14T07:42:25;98720.16;;;6.70;86.30
64139;BME280;50435;43.700;-79.318;2023-06-14T07:44:52;98718.56;;;6.68;86.34
64139;BME280;50435;43.700;-79.318;2023-06-14T07:47:20;98719.40;;;6.66;86.33
64139;BME280;50435;43.700;-79.318;2023-06-14T07:49:48;98713.86;;;6.68;86.38
64139;BME280;50435;43.700;-79.318;2023-06-14T07:52:15;98720.94;;;7.17;86.41
64139;BME280;50435;43.700;-79.318;2023-06-14T07:54:43;98718.43;;;6.98;86.35
64139;BME280;50435;43.700;-79.318;2023-06-14T07:57:10;98714.23;;;6.71;86.33
64139;BME280;50435;43.700;-79.318;2023-06-14T07:59:37;98714.01;;;6.98;86.44
64139;BME280;50435;43.700;-79.318;2023-06-14T08:02:05;98711.03;;;7.24;86.32
64139;BME280;50435;43.700;-79.318;2023-06-14T08:04:32;98709.27;;;6.76;86.32
64139;BME280;50435;43.700;-79.318;2023-06-14T08:07:00;98711.16;;;6.75;86.40
64139;BME280;50435;43.700;-79.318;2023-06-14T08:09:28;98705.90;;;6.76;86.40
64139;BME280;50435;43.700;-79.318;2023-06-14T08:11:55;98707.80;;;6.99;86.51
64139;BME280;50435;43.700;-79.318;2023-06-14T08:14:23;98706.70;;;7.19;86.58
64139;BME280;50435;43.700;-79.318;2023-06-14T08:16:51;98709.65;;;6.93;86.69
64139;BME280;50435;43.700;-79.318;2023-06-14T08:19:18;98704.79;;;7.16;86.62
64139;BME280;50435;43.700;-79.318;2023-06-14T08:21:46;98700.19;;;7.16;86.69
64139;BME280;50435;43.700;-79.318;2023-06-14T08:24:13;98699.45;;;7.18;86.62
64139;BME280;50435;43.700;-79.318;2023-06-14T08:26:41;98694.59;;;6.71;86.51
64139;BME280;50435;43.700;-79.318;2023-06-14T08:29:08;98693.01;;;7.17;86.70
64139;BME280;50435;43.700;-79.318;2023-06-14T08:31:36;98692.49;;;7.17;86.72
64139;BME280;50435;43.700;-79.318;2023-06-14T08:34:03;98693.51;;;7.18;86.71
64139;BME280;50435;43.700;-79.318;2023-06-14T08:36:31;98692.79;;;7.18;86.67
64139;BME280;50435;43.700;-79.318;2023-06-14T08:38:58;98690.94;;;6.70;86.71
64139;BME280;50435;43.700;-79.318;2023-06-14T08:41:26;98688.81;;;7.23;86.54
64139;BME280;50435;43.700;-79.318;2023-06-14T08:43:55;98688.68;;;6.73;86.64
64139;BME280;50435;43.700;-79.318;2023-06-14T08:46:25;98690.78;;;6.76;86.51
64139;BME280;50435;43.700;-79.318;2023-06-14T08:48:55;98690.85;;;7.00;86.64
64139;BME280;50435;43.700;-79.318;2023-06-14T08:51:25;98690.70;;;6.78;86.58
64139;BME280;50435;43.700;-79.318;2023-06-14T08:53:54;98689.61;;;7.07;86.48
64139;BME280;50435;43.700;-79.318;2023-06-14T08:56:23;98688.95;;;6.79;86.52
64139;BME280;50435;43.700;-79.318;2023-06-14T08:58:52;98685.61;;;6.78;86.62
64139;BME280;50435;43.700;-79.318;2023-06-14T09:01:20;98680.24;;;7.07;86.64
64139;BME280;50435;43.700;-79.318;2023-06-14T09:03:48;98678.73;;;6.82;86.60
64139;BME280;50435;43.700;-79.318;2023-06-14T09:06:16;98678.90;;;6.82;86.61
64139;BME280;50435;43.700;-79.318;2023-06-14T09:08:45;98683.24;;;6.84;86.56
64139;BME280;50435;43.700;-79.318;2023-06-14T09:11:13;98683.20;;;6.85;86.55
64139;BME280;50435;43.700;-79.318;2023-06-14T09:13:42;98686.16;;;6.84;86.60
64139;BME280;50435;43.700;-79.318;2023-06-14T09:16:10;98683.61;;;6.84;86.61
64139;BME280;50435;43.700;-79.318;2023-06-14T09:18:38;98679.64;;;6.61;86.57
64139;BME280;50435;43.700;-79.318;2023-06-14T09:21:07;98678.10;;;6.84;86.64
64139;BME280;50435;43.700;-79.318;2023-06-14T09:23:36;98671.96;;;6.85;86.63
64139;BME280;50435;43.700;-79.318;2023-06-14T09:26:08;98670.70;;;6.84;86.61
64139;BME280;50435;43.700;-79.318;2023-06-14T09:28:36;98673.86;;;6.86;86.63
64139;BME280;50435;43.700;-79.318;2023-06-14T09:31:04;98673.44;;;6.64;86.60
64139;BME280;50435;43.700;-79.318;2023-06-14T09:33:31;98670.43;;;6.84;86.78
64139;BME280;50435;43.700;-79.318;2023-06-14T09:35:58;98665.96;;;6.83;86.81
64139;BME280;50435;43.700;-79.318;2023-06-14T09:38:26;98667.71;;;7.08;86.83
64139;BME280;50435;43.700;-79.318;2023-06-14T09:40:57;98661.85;;;7.27;87.03
64139;BME280;50435;43.700;-79.318;2023-06-14T09:43:25;98657.39;;;6.75;87.16
64139;BME280;50435;43.700;-79.318;2023-06-14T09:45:54;98656.86;;;7.20;87.22
64139;BME280;50435;43.700;-79.318;2023-06-14T09:48:22;98655.58;;;7.20;87.26
64139;BME280;50435;43.700;-79.318;2023-06-14T09:50:50;98656.90;;;6.94;87.30
64139;BME280;50435;43.700;-79.318;2023-06-14T09:53:21;98658.11;;;7.14;87.36
64139;BME280;50435;43.700;-79.318;2023-06-14T09:55:50;98656.41;;;7.15;87.30
64139;BME280;50435;43.700;-79.318;2023-06-14T09:58:20;98654.12;;;6.92;87.33
64139;BME280;50435;43.700;-79.318;2023-06-14T10:00:50;98649.87;;;7.10;87.39
64139;BME280;50435;43.700;-79.318;2023-06-14T10:03:22;98649.78;;;6.89;87.34
64139;BME280;50435;43.700;-79.318;2023-06-14T10:05:51;98645.74;;;7.09;87.45
64139;BME280;50435;43.700;-79.318;2023-06-14T10:08:22;98644.89;;;7.09;87.41
64139;BME280;50435;43.700;-79.318;2023-06-14T10:10:50;98644.89;;;7.07;87.45
64139;BME280;50435;43.700;-79.318;2023-06-14T10:13:18;98642.59;;;6.85;87.39
64139;BME280;50435;43.700;-79.318;2023-06-14T10:16:00;98641.18;;;6.85;87.44
64139;BME280;50435;43.700;-79.318;2023-06-14T10:18:39;98637.86;;;7.06;87.38
64139;BME280;50435;43.700;-79.318;2023-06-14T10:21:16;98635.51;;;7.06;87.46
64139;BME280;50435;43.700;-79.318;2023-06-14T10:23:44;98630.12;;;6.83;87.50
64139;BME280;50435;43.700;-79.318;2023-06-14T10:26:19;98630.03;;;7.07;87.38
64139;BME280;50435;43.700;-79.318;2023-06-14T10:28:57;98632.36;;;7.06;87.48
64139;BME280;50435;43.700;-79.318;2023-06-14T10:31:40;98634.35;;;6.84;87.37
64139;BME280;50435;43.700;-79.318;2023-06-14T10:34:08;98635.04;;;7.08;87.30
64139;BME280;50435;43.700;-79.318;2023-06-14T10:36:37;98635.56;;;7.09;87.29
64139;BME280;50435;43.700;-79.318;2023-06-14T10:39:07;98631.72;;;7.09;87.37
64139;BME280;50435;43.700;-79.318;2023-06-14T10:41:37;98629.74;;;7.11;87.29
64139;BME280;50435;43.700;-79.318;2023-06-14T10:45:13;98626.75;;;7.11;87.33
64139;BME280;50435;43.700;-79.318;2023-06-14T10:47:40;98630.80;;;7.16;87.22
64139;BME280;50435;43.700;-79.318;2023-06-14T10:50:10;98630.20;;;7.17;87.16
64139;BME280;50435;43.700;-79.318;2023-06-14T10:52:39;98630.70;;;6.74;87.06
64139;BME280;50435;43.700;-79.318;2023-06-14T10:55:09;98631.09;;;6.78;86.99
64139;BME280;50435;43.700;-79.318;2023-06-14T10:57:38;98634.09;;;7.29;86.97
64139;BME280;50435;43.700;-79.318;2023-06-14T11:00:08;98632.41;;;7.33;86.91
64139;BME280;50435;43.700;-79.318;2023-06-14T11:02:49;98632.55;;;6.85;86.96
64139;BME280;50435;43.700;-79.318;2023-06-14T11:05:24;98627.58;;;6.87;87.02
64139;BME280;50435;43.700;-79.318;2023-06-14T11:08:02;98631.22;;;6.89;87.10
64139;BME280;50435;43.700;-79.318;2023-06-14T11:10:37;98638.33;;;7.39;86.96
64139;BME280;50435;43.700;-79.318;2023-06-14T11:13:05;98636.70;;;6.92;87.09
64139;BME280;50435;43.700;-79.318;2023-06-14T11:15:34;98638.27;;;7.44;87.01
64139;BME280;50435;43.700;-79.318;2023-06-14T11:18:02;98639.79;;;7.23;87.11
64139;BME280;50435;43.700;-79.318;2023-06-14T11:20:32;98638.14;;;7.48;87.10
64139;BME280;50435;43.700;-79.318;2023-06-14T11:23:00;98637.99;;;7.50;87.09
64139;BME280;50435;43.700;-79.318;2023-06-14T11:25:28;98639.85;;;7.04;87.15
64139;BME280;50435;43.700;-79.318;2023-06-14T11:27:55;98638.07;;;7.36;87.01
64139;BME280;50435;43.700;-79.318;2023-06-14T11:30:23;98639.89;;;7.41;86.81
64139;BME280;50435;43.700;-79.318;2023-06-14T11:32:52;98641.70;;;7.43;86.69
64139;BME280;50435;43.700;-79.318;2023-06-14T11:35:24;98642.82;;;6.99;86.58
64139;BME280;50435;43.700;-79.318;2023-06-14T11:37:53;98637.48;;;7.23;86.52
64139;BME280;50435;43.700;-79.318;2023-06-14T11:40:24;98641.29;;;7.24;86.57
64139;BME280;50435;43.700;-79.318;2023-06-14T11:42:58;98644.47;;;7.07;86.46
64139;BME280;50435;43.700;-79.318;2023-06-14T11:45:26;98646.03;;;7.33;86.21
64139;BME280;50435;43.700;-79.318;2023-06-14T11:47:55;98643.23;;;7.36;86.22
64139;BME280;50435;43.700;-79.318;2023-06-14T11:50:24;98646.59;;;7.38;86.18
64139;BME280;50435;43.700;-79.318;2023-06-14T11:52:53;98650.98;;;7.42;86.06
64139;BME280;50435;43.700;-79.318;2023-06-14T11:55:21;98653.21;;;7.23;86.08
64139;BME280;50435;43.700;-79.318;2023-06-14T11:57:48;98654.94;;;7.47;85.88
64139;BME280;50435;43.700;-79.318;2023-06-14T12:00:17;98654.38;;;7.49;85.90
64139;BME280;50435;43.700;-79.318;2023-06-14T12:02:53;98655.76;;;7.52;86.30
64139;BME280;50435;43.700;-79.318;2023-06-14T12:05:21;98656.26;;;7.56;86.13
64139;BME280;50435;43.700;-79.318;2023-06-14T12:07:49;98662.39;;;7.60;86.03
64139;BME280;50435;43.700;-79.318;2023-06-14T12:10:17;98657.45;;;7.65;85.90
64139;BME280;50435;43.700;-79.318;2023-06-14T12:12:44;98655.16;;;7.46;86.09
64139;BME280;50435;43.700;-79.318;2023-06-14T12:15:12;98657.03;;;7.70;85.95
64139;BME280;50435;43.700;-79.318;2023-06-14T12:17:39;98652.95;;;8.01;85.86
64139;BME280;50435;43.700;-79.318;2023-06-14T12:20:11;98651.19;;;7.59;86.06
64139;BME280;50435;43.700;-79.318;2023-06-14T12:22:39;98645.57;;;7.83;86.26
64139;BME280;50435;43.700;-79.318;2023-06-14T12:25:07;98642.60;;;7.86;85.97
64139;BME280;50435;43.700;-79.318;2023-06-14T12:27:35;98643.53;;;7.91;85.92
64139;BME280;50435;43.700;-79.318;2023-06-14T12:30:04;98643.94;;;8.00;86.04
64139;BME280;50435;43.700;-79.318;2023-06-14T12:32:32;98643.28;;;8.05;86.35
64139;BME280;50435;43.700;-79.318;2023-06-14T12:34:59;98646.48;;;8.08;86.19
64139;BME280;50435;43.700;-79.318;2023-06-14T12:37:27;98642.63;;;7.90;86.02
64139;BME280;50435;43.700;-79.318;2023-06-14T12:39:55;98642.07;;;8.13;86.07
64139;BME280;50435;43.700;-79.318;2023-06-14T12:42:22;98644.79;;;8.17;85.64
64139;BME280;50435;43.700;-79.318;2023-06-14T12:44:50;98641.56;;;8.13;85.73
64139;BME280;50435;43.700;-79.318;2023-06-14T12:47:17;98647.50;;;8.11;86.12
64139;BME280;50435;43.700;-79.318;2023-06-14T12:49:45;98650.42;;;8.15;85.94
64139;BME280;50435;43.700;-79.318;2023-06-14T12:52:13;98649.91;;;7.96;85.91
64139;BME280;50435;43.700;-79.318;2023-06-14T12:54:40;98647.98;;;7.98;85.64
64139;BME280;50435;43.700;-79.318;2023-06-14T12:57:08;98650.74;;;8.21;85.56